createdAt,value
2017-06-10T00:00:51.489Z,20.61
2017-06-10T00:02:01.732Z,20.59
2017-06-10T00:03:11.171Z,20.5
2017-06-10T00:04:20.808Z,20.54
2017-06-10T00:05:31.068Z,20.57
2017-06-10T00:06:40.994Z,20.58
2017-06-10T00:07:50.603Z,20.48
2017-06-10T00:09:00.381Z,20.58
2017-06-10T00:10:10.287Z,20.52
2017-06-10T00:11:20.227Z,20.47
2017-06-10T00:12:30.148Z,20.41
2017-06-10T00:13:40.350Z,20.36
2017-06-10T00:14:50.760Z,20.52
2017-06-10T00:16:00.944Z,20.47
2017-06-10T00:17:11.091Z,20.47
2017-06-10T00:18:21.020Z,20.41
2017-06-10T00:19:31.248Z,20.39
2017-06-10T00:20:41.629Z,20.32
2017-06-10T00:21:51.860Z,20.36
2017-06-10T00:23:01.779Z,20.32
2017-06-10T00:24:11.388Z,20.41
2017-06-10T00:25:21.611Z,20.36
2017-06-10T00:26:31.089Z,20.36
2017-06-10T00:27:40.725Z,20.32
2017-06-10T00:28:50.022Z,20.29
2017-06-10T00:30:00.254Z,20.28
2017-06-10T00:31:10.162Z,20.33
2017-06-10T00:32:20.243Z,20.17
2017-06-10T00:33:30.467Z,20.21
2017-06-10T00:34:39.801Z,20.18
2017-06-10T00:35:49.716Z,20.16
2017-06-10T00:36:59.381Z,20.2
2017-06-10T00:38:09.615Z,20.2
2017-06-10T00:39:19.236Z,20.2
2017-06-10T00:40:29.481Z,20.18
2017-06-10T00:41:39.398Z,20.21
2017-06-10T00:42:49.007Z,20.23
2017-06-10T00:43:59.380Z,20.21
2017-06-10T00:45:09.361Z,20.21
2017-06-10T00:46:18.980Z,20.24
2017-06-10T00:47:28.591Z,20.2
2017-06-10T00:48:38.819Z,20.11
2017-06-10T00:49:48.848Z,20.1
2017-06-10T00:50:58.164Z,20.1
2017-06-10T00:52:08.080Z,20.13
2017-06-10T00:53:18.012Z,20.11
2017-06-10T00:54:27.007Z,20.11
2017-06-10T00:55:37.088Z,20.08
2017-06-10T00:56:46.396Z,20.06
2017-06-10T00:57:56.295Z,20.13
2017-06-10T00:59:06.227Z,20.03
2017-06-10T01:00:15.850Z,19.98
2017-06-10T01:01:25.785Z,19.99
2017-06-10T01:02:36.021Z,20.02
2017-06-10T01:03:46.258Z,20.06
2017-06-10T01:04:56.495Z,19.99
2017-06-10T01:06:06.097Z,19.88
2017-06-10T01:07:15.783Z,19.83
2017-06-10T01:08:25.708Z,19.95
2017-06-10T01:09:35.323Z,19.99
2017-06-10T01:10:44.926Z,19.94
2017-06-10T01:11:54.572Z,19.99
2017-06-10T01:13:04.482Z,19.96
2017-06-10T01:14:14.385Z,20.02
2017-06-10T01:15:24.640Z,19.94
2017-06-10T01:16:33.968Z,20.02
2017-06-10T01:17:43.885Z,19.94
2017-06-10T01:18:54.021Z,19.96
2017-06-10T01:20:04.234Z,19.95
2017-06-10T01:21:13.847Z,19.83
2017-06-10T01:22:23.460Z,19.87
2017-06-10T01:23:33.366Z,19.8
2017-06-10T01:24:43.703Z,19.77
2017-06-10T01:25:53.940Z,19.76
2017-06-10T01:27:04.179Z,19.71
2017-06-10T01:28:14.099Z,19.73
2017-06-10T01:29:24.008Z,19.69
2017-06-10T01:30:33.778Z,19.63
2017-06-10T01:31:44.026Z,19.65
2017-06-10T01:32:53.359Z,19.77
2017-06-10T01:34:02.979Z,19.63
2017-06-10T01:35:12.627Z,19.68
2017-06-10T01:36:23.022Z,19.65
2017-06-10T01:37:33.258Z,19.69
2017-06-10T01:38:43.189Z,19.68
2017-06-10T01:39:53.114Z,19.66
2017-06-10T01:41:03.025Z,19.69
2017-06-10T01:42:13.258Z,19.61
2017-06-10T01:43:23.167Z,19.61
2017-06-10T01:44:32.788Z,19.62
2017-06-10T01:45:42.402Z,19.58
2017-06-10T01:46:52.054Z,19.58
2017-06-10T01:48:02.436Z,19.59
2017-06-10T01:49:12.043Z,19.56
2017-06-10T01:50:21.976Z,19.66
2017-06-10T01:51:31.887Z,19.55
2017-06-10T01:52:41.804Z,19.66
2017-06-10T01:53:52.082Z,19.68
2017-06-10T01:55:01.997Z,19.66
2017-06-10T01:56:11.906Z,19.59
2017-06-10T01:57:22.130Z,19.56
2017-06-10T01:58:31.725Z,19.59
2017-06-10T01:59:41.189Z,19.56
2017-06-10T02:00:51.403Z,19.56
2017-06-10T02:02:01.345Z,19.62
2017-06-10T02:03:11.572Z,19.59
2017-06-10T02:04:21.488Z,19.56
2017-06-10T02:05:31.854Z,19.51
2017-06-10T02:06:41.771Z,19.56
2017-06-10T02:07:51.685Z,19.51
2017-06-10T02:09:01.320Z,19.46
2017-06-10T02:10:10.953Z,19.55
2017-06-10T02:11:20.982Z,19.5
2017-06-10T02:12:31.221Z,19.5
2017-06-10T02:13:41.132Z,19.48
2017-06-10T02:14:50.736Z,19.55
2017-06-10T02:16:00.672Z,19.44
2017-06-10T02:17:10.702Z,19.48
2017-06-10T02:18:20.934Z,19.48
2017-06-10T02:19:30.849Z,19.5
2017-06-10T02:20:40.463Z,19.55
2017-06-10T02:21:50.371Z,19.47
2017-06-10T02:23:00.444Z,19.46
2017-06-10T02:24:10.658Z,19.43
2017-06-10T02:25:20.870Z,19.47
2017-06-10T02:26:31.088Z,19.5
2017-06-10T02:27:40.709Z,19.4
2017-06-10T02:28:50.426Z,19.46
2017-06-10T02:30:00.056Z,19.46
2017-06-10T02:31:09.963Z,19.48
2017-06-10T02:32:20.181Z,19.47
2017-06-10T02:33:30.116Z,19.5
2017-06-10T02:34:40.385Z,19.4
2017-06-10T02:35:50.332Z,19.36
2017-06-10T02:37:00.233Z,19.37
2017-06-10T02:38:10.168Z,19.36
2017-06-10T02:39:20.082Z,19.31
2017-06-10T02:40:30.348Z,19.28
2017-06-10T02:41:40.569Z,19.37
2017-06-10T02:42:50.508Z,19.36
2017-06-10T02:44:00.740Z,19.31
2017-06-10T02:45:10.350Z,19.29
2017-06-10T02:46:20.392Z,19.29
2017-06-10T02:47:30.301Z,19.29
2017-06-10T02:48:40.520Z,19.41
2017-06-10T02:49:49.826Z,19.46
2017-06-10T02:50:59.737Z,19.44
2017-06-10T02:52:09.785Z,19.39
2017-06-10T02:53:19.698Z,19.39
2017-06-10T02:54:29.612Z,19.41
2017-06-10T02:55:39.213Z,19.37
2017-06-10T02:56:49.426Z,19.31
2017-06-10T02:57:59.215Z,19.22
2017-06-10T02:59:09.163Z,19.25
2017-06-10T03:00:19.084Z,19.36
2017-06-10T03:01:29.299Z,19.21
2017-06-10T03:02:39.516Z,19.22
2017-06-10T03:03:49.281Z,19.21
2017-06-10T03:04:59.198Z,19.21
2017-06-10T03:06:09.100Z,19.18
2017-06-10T03:07:18.704Z,19.21
2017-06-10T03:08:28.911Z,19.11
2017-06-10T03:09:38.811Z,19.18
2017-06-10T03:10:48.719Z,19.14
2017-06-10T03:11:58.007Z,19.13
2017-06-10T03:13:07.919Z,19.11
2017-06-10T03:14:17.557Z,19.1
2017-06-10T03:15:27.270Z,19.13
2017-06-10T03:16:36.877Z,19.02
2017-06-10T03:17:47.086Z,19.04
2017-06-10T03:18:56.679Z,19.02
2017-06-10T03:20:06.593Z,19.11
2017-06-10T03:21:16.596Z,19.07
2017-06-10T03:22:26.519Z,18.99
2017-06-10T03:23:36.741Z,19.02
2017-06-10T03:24:46.647Z,18.95
2017-06-10T03:25:55.948Z,19
2017-06-10T03:27:06.014Z,19
2017-06-10T03:28:16.234Z,19
2017-06-10T03:29:26.154Z,19.07
2017-06-10T03:30:36.060Z,19.04
2017-06-10T03:31:46.284Z,19
2017-06-10T03:32:56.555Z,19
2017-06-10T03:34:06.156Z,18.94
2017-06-10T03:35:16.063Z,18.98
2017-06-10T03:36:25.981Z,18.95
2017-06-10T03:37:36.188Z,18.98
2017-06-10T03:38:46.246Z,18.98
2017-06-10T03:39:55.862Z,19
2017-06-10T03:41:06.104Z,19
2017-06-10T03:42:16.320Z,18.95
2017-06-10T03:43:25.930Z,18.91
2017-06-10T03:44:35.860Z,18.91
2017-06-10T03:45:45.771Z,18.95
2017-06-10T03:46:55.680Z,18.95
2017-06-10T03:48:05.293Z,18.99
2017-06-10T03:49:15.209Z,18.84
2017-06-10T03:50:24.657Z,18.9
2017-06-10T03:51:34.251Z,18.87
2017-06-10T03:52:44.495Z,18.8
2017-06-10T03:53:54.723Z,18.84
2017-06-10T03:55:04.361Z,18.75
2017-06-10T03:56:14.311Z,18.76
2017-06-10T03:57:24.233Z,18.81
2017-06-10T03:58:34.442Z,18.7
2017-06-10T03:59:44.654Z,18.75
2017-06-10T04:00:54.571Z,18.66
2017-06-10T04:02:04.850Z,18.82
2017-06-10T04:03:14.770Z,18.75
2017-06-10T04:04:24.675Z,18.85
2017-06-10T04:05:33.966Z,18.91
2017-06-10T04:06:43.874Z,18.8
2017-06-10T04:07:53.569Z,18.84
2017-06-10T04:09:03.787Z,18.87
2017-06-10T04:10:13.397Z,18.87
2017-06-10T04:11:23.615Z,18.85
2017-06-10T04:12:33.216Z,18.81
2017-06-10T04:13:43.622Z,18.87
2017-06-10T04:14:52.922Z,18.84
2017-06-10T04:16:02.840Z,18.88
2017-06-10T04:17:12.791Z,18.9
2017-06-10T04:18:23.015Z,18.88
2017-06-10T04:19:32.989Z,18.84
2017-06-10T04:20:42.603Z,18.84
2017-06-10T04:21:52.220Z,18.81
2017-06-10T04:23:02.448Z,18.9
2017-06-10T04:24:12.082Z,18.88
2017-06-10T04:25:22.090Z,18.87
2017-06-10T04:26:32.298Z,18.95
2017-06-10T04:27:42.226Z,18.99
2017-06-10T04:28:52.144Z,19
2017-06-10T04:30:01.460Z,19
2017-06-10T04:31:10.903Z,19.08
2017-06-10T04:32:20.815Z,19.04
2017-06-10T04:33:30.735Z,18.99
2017-06-10T04:34:40.653Z,18.98
2017-06-10T04:35:50.551Z,18.99
2017-06-10T04:37:00.937Z,19.04
2017-06-10T04:38:10.860Z,19.08
2017-06-10T04:39:19.868Z,19.07
2017-06-10T04:40:29.479Z,19
2017-06-10T04:41:39.392Z,19.07
2017-06-10T04:42:49.454Z,19.1
2017-06-10T04:43:59.369Z,19.13
2017-06-10T04:45:08.973Z,19.19
2017-06-10T04:46:18.875Z,19.21
2017-06-10T04:47:28.790Z,19.13
2017-06-10T04:48:39.164Z,19.22
2017-06-10T04:49:49.070Z,19.31
2017-06-10T04:50:58.079Z,19.25
2017-06-10T04:52:08.311Z,19.26
2017-06-10T04:53:18.530Z,19.39
2017-06-10T04:54:28.571Z,19.44
2017-06-10T04:55:38.778Z,19.62
2017-06-10T04:56:48.987Z,19.73
2017-06-10T04:57:58.599Z,20.01
2017-06-10T04:59:08.853Z,20.16
2017-06-10T05:00:18.505Z,20.32
2017-06-10T05:01:28.423Z,20.41
2017-06-10T05:02:38.647Z,20.55
2017-06-10T05:03:48.885Z,20.72
2017-06-10T05:04:58.782Z,20.79
2017-06-10T05:06:08.840Z,20.97
2017-06-10T05:07:19.062Z,21.12
2017-06-10T05:08:29.414Z,21.22
2017-06-10T05:09:39.531Z,21.32
2017-06-10T05:10:49.219Z,21.4
2017-06-10T05:11:59.269Z,21.53
2017-06-10T05:13:08.886Z,21.62
2017-06-10T05:14:19.135Z,21.77
2017-06-10T05:15:28.731Z,21.9
2017-06-10T05:16:38.344Z,22
2017-06-10T05:17:48.738Z,22.07
2017-06-10T05:18:58.693Z,22.2
2017-06-10T05:20:08.643Z,22.24
2017-06-10T05:21:18.250Z,22.35
2017-06-10T05:22:28.158Z,22.57
2017-06-10T05:23:38.241Z,22.61
2017-06-10T05:24:47.552Z,22.68
2017-06-10T05:25:57.200Z,22.88
2017-06-10T05:27:07.435Z,22.98
2017-06-10T05:28:17.344Z,23.16
2017-06-10T05:29:27.441Z,23.23
2017-06-10T05:30:37.048Z,23.33
2017-06-10T05:31:47.274Z,23.47
2017-06-10T05:32:57.490Z,23.57
2017-06-10T05:34:07.709Z,23.7
2017-06-10T05:35:17.618Z,23.79
2017-06-10T05:36:27.297Z,23.87
2017-06-10T05:37:37.238Z,23.91
2017-06-10T05:38:47.144Z,24.03
2017-06-10T05:39:56.737Z,24.22
2017-06-10T05:41:06.945Z,24.3
2017-06-10T05:42:16.559Z,24.32
2017-06-10T05:43:26.475Z,24.47
2017-06-10T05:44:36.692Z,24.52
2017-06-10T05:45:46.905Z,24.65
2017-06-10T05:46:56.831Z,24.71
2017-06-10T05:48:06.752Z,24.77
2017-06-10T05:49:16.663Z,24.77
2017-06-10T05:50:26.904Z,24.88
2017-06-10T05:51:36.827Z,24.95
2017-06-10T05:52:47.204Z,25.08
2017-06-10T05:53:57.416Z,25.17
2017-06-10T05:55:07.331Z,25.21
2017-06-10T05:56:16.329Z,25.2
2017-06-10T05:57:26.232Z,25.32
2017-06-10T05:58:36.139Z,25.33
2017-06-10T05:59:46.367Z,25.5
2017-06-10T06:00:56.269Z,25.61
2017-06-10T06:02:06.185Z,25.51
2017-06-10T06:03:16.128Z,25.67
2017-06-10T06:04:26.386Z,25.7
2017-06-10T06:05:36.007Z,25.77
2017-06-10T06:06:45.654Z,25.8
2017-06-10T06:07:55.576Z,25.92
2017-06-10T06:09:05.801Z,25.9
2017-06-10T06:10:15.402Z,25.99
2017-06-10T06:11:25.339Z,25.95
2017-06-10T06:12:35.565Z,26.02
2017-06-10T06:13:45.489Z,26.13
2017-06-10T06:14:55.097Z,26.1
2017-06-10T06:16:05.359Z,26.29
2017-06-10T06:17:14.967Z,26.33
2017-06-10T06:18:24.875Z,26.4
2017-06-10T06:19:34.793Z,26.51
2017-06-10T06:20:44.713Z,26.51
2017-06-10T06:21:54.655Z,26.55
2017-06-10T06:23:04.264Z,26.67
2017-06-10T06:24:14.488Z,26.72
2017-06-10T06:25:23.802Z,26.77
2017-06-10T06:26:33.715Z,26.85
2017-06-10T06:27:43.655Z,26.94
2017-06-10T06:28:53.566Z,27.03
2017-06-10T06:30:03.773Z,27.1
2017-06-10T06:31:13.406Z,27.13
2017-06-10T06:32:23.647Z,27.24
2017-06-10T06:33:33.562Z,27.39
2017-06-10T06:34:43.161Z,27.4
2017-06-10T06:35:53.066Z,27.47
2017-06-10T06:37:02.667Z,27.65
2017-06-10T06:38:12.582Z,27.78
2017-06-10T06:39:22.497Z,27.81
2017-06-10T06:40:32.761Z,27.85
2017-06-10T06:41:42.680Z,28.07
2017-06-10T06:42:52.907Z,28.09
2017-06-10T06:44:02.820Z,28.21
2017-06-10T06:45:12.750Z,28.36
2017-06-10T06:46:22.364Z,28.36
2017-06-10T06:47:32.599Z,28.51
2017-06-10T06:48:42.813Z,28.52
2017-06-10T06:49:52.426Z,28.51
2017-06-10T06:51:02.638Z,28.58
2017-06-10T06:52:12.557Z,28.74
2017-06-10T06:53:22.157Z,28.74
2017-06-10T06:54:31.780Z,28.74
2017-06-10T06:55:41.373Z,28.58
2017-06-10T06:56:50.972Z,28.55
2017-06-10T06:58:01.181Z,28.62
2017-06-10T06:59:10.482Z,28.74
2017-06-10T07:00:20.111Z,29.14
2017-06-10T07:01:30.341Z,29.26
2017-06-10T07:02:39.954Z,29.52
2017-06-10T07:03:50.194Z,29.67
2017-06-10T07:05:00.221Z,29.92
2017-06-10T07:06:12.544Z,30.2
2017-06-10T07:07:22.703Z,30.43
2017-06-10T07:08:32.659Z,30.49
2017-06-10T07:09:42.578Z,30.73
2017-06-10T07:10:52.482Z,30.92
2017-06-10T07:12:02.094Z,31.02
2017-06-10T07:13:11.394Z,31.19
2017-06-10T07:14:21.601Z,31.43
2017-06-10T07:15:31.505Z,31.58
2017-06-10T07:16:41.722Z,31.65
2017-06-10T07:17:51.320Z,31.81
2017-06-10T07:19:00.608Z,31.99
2017-06-10T07:20:09.919Z,32.13
2017-06-10T07:21:19.829Z,32.18
2017-06-10T07:22:29.418Z,32.32
2017-06-10T07:23:39.339Z,32.48
2017-06-10T07:24:49.239Z,32.62
2017-06-10T07:25:58.847Z,32.79
2017-06-10T07:27:09.076Z,32.88
2017-06-10T07:28:18.988Z,32.93
2017-06-10T07:29:28.905Z,33.19
2017-06-10T07:30:38.515Z,33.31
2017-06-10T07:31:48.724Z,33.53
2017-06-10T07:32:58.329Z,33.65
2017-06-10T07:34:07.646Z,33.73
2017-06-10T07:35:16.980Z,33.88
2017-06-10T07:36:26.888Z,33.95
2017-06-10T07:37:36.186Z,34.09
2017-06-10T07:38:46.091Z,34.34
2017-06-10T07:39:56.313Z,34.47
2017-06-10T07:41:05.952Z,34.69
2017-06-10T07:42:15.560Z,34.69
2017-06-10T07:43:25.467Z,34.85
2017-06-10T07:44:35.379Z,34.99
2017-06-10T07:45:45.762Z,35.11
2017-06-10T07:46:55.959Z,35.26
2017-06-10T07:48:05.261Z,35.38
2017-06-10T07:49:15.489Z,35.63
2017-06-10T07:50:25.720Z,35.7
2017-06-10T07:51:35.954Z,35.9
2017-06-10T07:52:45.870Z,35.89
2017-06-10T07:53:55.170Z,36.03
2017-06-10T07:55:05.417Z,36.12
2017-06-10T07:56:15.638Z,36.28
2017-06-10T07:57:25.890Z,36.37
2017-06-10T07:58:35.814Z,36.35
2017-06-10T07:59:45.743Z,36.46
2017-06-10T08:00:55.360Z,36.51
2017-06-10T08:02:05.569Z,36.62
2017-06-10T08:03:15.180Z,36.72
2017-06-10T08:04:25.119Z,36.75
2017-06-10T08:05:35.034Z,36.87
2017-06-10T08:06:44.637Z,36.9
2017-06-10T08:07:54.262Z,36.94
2017-06-10T08:09:04.491Z,37.09
2017-06-10T08:10:14.409Z,37.12
2017-06-10T08:11:24.649Z,37.15
2017-06-10T08:12:34.258Z,37.24
2017-06-10T08:13:44.203Z,37.22
2017-06-10T08:14:54.125Z,37.36
2017-06-10T08:16:03.432Z,37.44
2017-06-10T08:17:13.362Z,37.51
2017-06-10T08:18:23.287Z,37.55
2017-06-10T08:19:33.197Z,37.64
2017-06-10T08:20:43.143Z,37.66
2017-06-10T08:21:53.062Z,37.79
2017-06-10T08:23:02.730Z,37.86
2017-06-10T08:24:12.673Z,37.94
2017-06-10T08:25:22.917Z,37.97
2017-06-10T08:26:32.842Z,38.03
2017-06-10T08:27:42.762Z,38.12
2017-06-10T08:28:53.000Z,38.23
2017-06-10T08:30:03.236Z,38.34
2017-06-10T08:31:13.163Z,38.31
2017-06-10T08:32:22.803Z,38.37
2017-06-10T08:33:32.743Z,38.38
2017-06-10T08:34:42.966Z,38.38
2017-06-10T08:35:52.602Z,38.38
2017-06-10T08:37:02.870Z,38.25
2017-06-10T08:38:12.184Z,38.04
2017-06-10T08:39:22.119Z,37.64
2017-06-10T08:40:32.357Z,37.31
2017-06-10T08:41:42.282Z,36.8
2017-06-10T08:42:51.591Z,36.46
2017-06-10T08:44:01.812Z,36
2017-06-10T08:45:11.743Z,35.66
2017-06-10T08:46:21.991Z,35.21
2017-06-10T08:47:31.287Z,34.85
2017-06-10T08:48:41.524Z,34.52
2017-06-10T08:49:51.754Z,34.21
2017-06-10T08:51:01.432Z,33.93
2017-06-10T08:52:11.940Z,33.61
2017-06-10T08:53:21.643Z,33.31
2017-06-10T08:54:30.953Z,33.04
2017-06-10T08:55:40.873Z,32.79
2017-06-10T08:56:50.943Z,32.51
2017-06-10T08:58:01.672Z,32.13
2017-06-10T08:59:11.575Z,31.92
2017-06-10T09:00:21.168Z,31.7
2017-06-10T09:01:31.340Z,31.38
2017-06-10T09:02:41.574Z,31.25
2017-06-10T09:03:51.636Z,31.02
2017-06-10T09:05:01.605Z,30.83
2017-06-10T09:06:11.372Z,30.57
2017-06-10T09:07:22.320Z,30.42
2017-06-10T09:08:31.625Z,30.15
2017-06-10T09:09:41.531Z,29.98
2017-06-10T09:10:51.461Z,29.85
2017-06-10T09:12:01.398Z,29.71
2017-06-10T09:13:10.703Z,29.53
2017-06-10T09:14:20.336Z,29.46
2017-06-10T09:15:29.939Z,29.31
2017-06-10T09:16:40.160Z,29.19
2017-06-10T09:17:49.476Z,29.19
2017-06-10T09:18:59.730Z,29.06
2017-06-10T09:20:09.644Z,29.02
2017-06-10T09:21:18.940Z,28.96
2017-06-10T09:22:28.560Z,28.85
2017-06-10T09:23:38.792Z,28.8
2017-06-10T09:24:48.701Z,28.64
2017-06-10T09:25:57.718Z,28.61
2017-06-10T09:27:07.352Z,28.46
2017-06-10T09:28:16.955Z,28.41
2017-06-10T09:29:26.559Z,28.22
2017-06-10T09:30:36.779Z,28.12
2017-06-10T09:31:46.992Z,28.04
2017-06-10T09:32:56.596Z,27.93
2017-06-10T09:34:06.499Z,27.78
2017-06-10T09:35:16.100Z,27.51
2017-06-10T09:36:26.328Z,27.39
2017-06-10T09:37:36.234Z,27.31
2017-06-10T09:38:46.457Z,27.28
2017-06-10T09:39:56.059Z,27.18
2017-06-10T09:41:06.275Z,27
2017-06-10T09:42:16.501Z,26.91
2017-06-10T09:43:26.100Z,26.84
2017-06-10T09:44:36.006Z,26.88
2017-06-10T09:45:45.603Z,26.85
2017-06-10T09:46:55.819Z,26.89
2017-06-10T09:48:05.722Z,26.77
2017-06-10T09:49:15.942Z,26.8
2017-06-10T09:50:25.537Z,26.81
2017-06-10T09:51:35.587Z,26.76
2017-06-10T09:52:45.855Z,26.73
2017-06-10T09:53:55.791Z,26.7
2017-06-10T09:55:05.713Z,26.75
2017-06-10T09:56:15.315Z,26.69
2017-06-10T09:57:25.214Z,26.65
2017-06-10T09:58:35.171Z,26.67
2017-06-10T09:59:45.076Z,26.63
2017-06-10T10:00:54.994Z,26.65
2017-06-10T10:02:04.912Z,26.66
2017-06-10T10:03:14.522Z,26.67
2017-06-10T10:04:24.121Z,26.63
2017-06-10T10:05:34.039Z,26.62
2017-06-10T10:06:43.954Z,26.63
2017-06-10T10:07:53.862Z,26.51
2017-06-10T10:09:03.461Z,26.51
2017-06-10T10:10:13.370Z,26.52
2017-06-10T10:11:22.976Z,26.47
2017-06-10T10:12:32.885Z,26.43
2017-06-10T10:13:42.502Z,26.37
2017-06-10T10:14:52.107Z,26.3
2017-06-10T10:16:02.032Z,26.21
2017-06-10T10:17:11.942Z,26.07
2017-06-10T10:18:21.586Z,26.12
2017-06-10T10:19:31.192Z,25.99
2017-06-10T10:20:41.288Z,25.99
2017-06-10T10:21:51.523Z,25.98
2017-06-10T10:23:01.117Z,26.01
2017-06-10T10:24:11.334Z,26.02
2017-06-10T10:25:20.958Z,25.92
2017-06-10T10:26:31.167Z,25.94
2017-06-10T10:27:40.776Z,25.97
2017-06-10T10:28:50.697Z,25.97
2017-06-10T10:30:00.033Z,25.95
2017-06-10T10:31:09.953Z,25.97
2017-06-10T10:32:19.890Z,25.94
2017-06-10T10:33:29.817Z,26.02
2017-06-10T10:34:40.052Z,25.97
2017-06-10T10:35:49.962Z,25.98
2017-06-10T10:36:59.874Z,26.1
2017-06-10T10:38:09.481Z,26.01
2017-06-10T10:39:19.421Z,25.95
2017-06-10T10:40:29.385Z,26.02
2017-06-10T10:41:39.316Z,25.95
2017-06-10T10:42:48.634Z,25.97
2017-06-10T10:43:58.541Z,25.94
2017-06-10T10:45:08.451Z,25.99
2017-06-10T10:46:18.665Z,25.94
2017-06-10T10:47:28.900Z,25.97
2017-06-10T10:48:38.554Z,25.9
2017-06-10T10:49:48.479Z,25.92
2017-06-10T10:50:58.700Z,25.8
2017-06-10T10:52:08.638Z,25.79
2017-06-10T10:53:18.556Z,25.69
2017-06-10T10:54:28.512Z,25.65
2017-06-10T10:55:38.456Z,25.67
2017-06-10T10:56:48.406Z,25.67
2017-06-10T10:57:58.312Z,25.64
2017-06-10T10:59:07.935Z,25.58
2017-06-10T11:00:18.183Z,25.54
2017-06-10T11:01:27.811Z,25.62
2017-06-10T11:02:37.424Z,25.52
2017-06-10T11:03:47.044Z,25.52
2017-06-10T11:04:56.685Z,25.51
2017-06-10T11:06:06.318Z,25.47
2017-06-10T11:07:16.235Z,25.54
2017-06-10T11:08:25.862Z,25.47
2017-06-10T11:09:35.782Z,25.45
2017-06-10T11:10:45.707Z,25.38
2017-06-10T11:11:55.050Z,25.4
2017-06-10T11:13:04.980Z,25.38
2017-06-10T11:14:14.921Z,25.28
2017-06-10T11:15:24.841Z,25.32
2017-06-10T11:16:34.776Z,25.32
2017-06-10T11:17:45.002Z,25.3
2017-06-10T11:18:54.914Z,25.3
2017-06-10T11:20:05.135Z,25.32
2017-06-10T11:21:14.734Z,25.35
2017-06-10T11:22:24.027Z,25.28
2017-06-10T11:23:34.242Z,25.27
2017-06-10T11:24:44.463Z,25.2
2017-06-10T11:25:54.678Z,25.17
2017-06-10T11:27:04.588Z,25.1
2017-06-10T11:28:14.492Z,25.09
2017-06-10T11:29:24.401Z,25.05
2017-06-10T11:30:34.299Z,25.13
2017-06-10T11:31:44.510Z,25.03
2017-06-10T11:32:54.123Z,25.06
2017-06-10T11:34:04.343Z,25.06
2017-06-10T11:35:14.265Z,25.05
2017-06-10T11:36:23.864Z,24.95
2017-06-10T11:37:33.160Z,24.99
2017-06-10T11:38:43.091Z,24.99
2017-06-10T11:39:53.010Z,24.96
2017-06-10T11:41:02.927Z,24.96
2017-06-10T11:42:13.134Z,25.06
2017-06-10T11:43:23.049Z,25.02
2017-06-10T11:44:32.346Z,25
2017-06-10T11:45:42.255Z,25.06
2017-06-10T11:46:51.857Z,25.06
2017-06-10T11:48:01.766Z,25.06
2017-06-10T11:49:12.002Z,25.06
2017-06-10T11:50:21.902Z,25.09
2017-06-10T11:51:32.123Z,25.08
2017-06-10T11:52:42.341Z,25.14
2017-06-10T11:53:51.952Z,25.13
2017-06-10T11:55:01.865Z,25.09
2017-06-10T11:56:11.475Z,25.13
2017-06-10T11:57:21.080Z,25.13
2017-06-10T11:58:30.688Z,25.09
2017-06-10T11:59:40.906Z,25.09
2017-06-10T12:00:50.819Z,25.13
2017-06-10T12:02:01.053Z,25.14
2017-06-10T12:03:10.663Z,25.09
2017-06-10T12:04:20.560Z,25.14
2017-06-10T12:05:30.677Z,25.15
2017-06-10T12:06:40.582Z,25.14
2017-06-10T12:07:50.197Z,25.08
2017-06-10T12:08:59.790Z,25
2017-06-10T12:10:09.399Z,24.98
2017-06-10T12:11:19.606Z,24.95
2017-06-10T12:12:29.504Z,25
2017-06-10T12:13:40.108Z,24.96
2017-06-10T12:14:50.032Z,24.98
2017-06-10T12:15:59.946Z,24.99
2017-06-10T12:17:09.243Z,24.87
2017-06-10T12:18:19.453Z,24.93
2017-06-10T12:19:29.063Z,24.88
2017-06-10T12:20:38.665Z,24.78
2017-06-10T12:21:48.570Z,24.81
2017-06-10T12:22:58.481Z,24.93
2017-06-10T12:24:08.382Z,24.88
2017-06-10T12:25:18.399Z,24.77
2017-06-10T12:26:28.246Z,24.78
2017-06-10T12:27:38.057Z,24.81
2017-06-10T12:28:48.009Z,24.83
2017-06-10T12:29:58.081Z,24.84
2017-06-10T12:31:08.111Z,24.88
2017-06-10T12:32:18.023Z,24.91
2017-06-10T12:33:27.938Z,24.93
2017-06-10T12:34:37.914Z,24.93
2017-06-10T12:35:47.508Z,24.95
2017-06-10T12:36:57.728Z,24.98
2017-06-10T12:38:07.249Z,24.91
2017-06-10T12:39:17.470Z,24.87
2017-06-10T12:40:27.378Z,24.95
2017-06-10T12:41:37.280Z,24.98
2017-06-10T12:42:47.505Z,24.98
2017-06-10T12:43:56.832Z,24.95
2017-06-10T12:45:06.425Z,24.95
2017-06-10T12:46:16.350Z,24.91
2017-06-10T12:47:26.614Z,25
2017-06-10T12:48:36.521Z,24.99
2017-06-10T12:49:46.739Z,24.98
2017-06-10T12:50:56.964Z,25.03
2017-06-10T12:52:07.216Z,25.05
2017-06-10T12:53:17.124Z,25.13
2017-06-10T12:54:27.063Z,25.1
2017-06-10T12:55:36.664Z,25.13
2017-06-10T12:56:46.665Z,25.13
2017-06-10T12:57:56.924Z,25.18
2017-06-10T12:59:06.562Z,25.21
2017-06-10T13:00:16.483Z,25.18
2017-06-10T13:01:26.395Z,25.23
2017-06-10T13:02:36.003Z,25.21
2017-06-10T13:03:45.603Z,25.2
2017-06-10T13:04:55.825Z,25.25
2017-06-10T13:06:05.761Z,25.25
2017-06-10T13:07:15.686Z,25.32
2017-06-10T13:08:25.608Z,25.2
2017-06-10T13:09:35.207Z,25.27
2017-06-10T13:10:45.121Z,25.21
2017-06-10T13:11:54.747Z,25.27
2017-06-10T13:13:04.653Z,25.36
2017-06-10T13:14:13.958Z,25.27
2017-06-10T13:15:24.175Z,25.4
2017-06-10T13:16:34.395Z,25.35
2017-06-10T13:17:44.303Z,25.36
2017-06-10T13:18:53.905Z,25.35
2017-06-10T13:20:04.131Z,25.28
2017-06-10T13:21:14.145Z,25.39
2017-06-10T13:22:24.065Z,25.38
2017-06-10T13:23:33.984Z,25.35
2017-06-10T13:24:44.209Z,25.5
2017-06-10T13:25:54.123Z,25.35
2017-06-10T13:27:03.422Z,25.36
2017-06-10T13:28:13.016Z,25.38
2017-06-10T13:29:22.629Z,25.46
2017-06-10T13:30:32.563Z,25.52
2017-06-10T13:31:42.171Z,25.36
2017-06-10T13:32:52.385Z,25.45
2017-06-10T13:34:02.600Z,25.5
2017-06-10T13:35:12.211Z,25.47
2017-06-10T13:36:22.119Z,25.43
2017-06-10T13:37:31.416Z,25.45
2017-06-10T13:38:40.712Z,25.51
2017-06-10T13:39:50.633Z,25.58
2017-06-10T13:41:00.542Z,25.46
2017-06-10T13:42:10.761Z,25.55
2017-06-10T13:43:20.673Z,25.54
2017-06-10T13:44:30.306Z,25.61
2017-06-10T13:45:39.910Z,25.61
2017-06-10T13:46:50.130Z,25.46
2017-06-10T13:48:00.346Z,25.52
2017-06-10T13:49:10.262Z,25.54
2017-06-10T13:50:20.174Z,25.45
2017-06-10T13:51:30.402Z,25.57
2017-06-10T13:52:40.012Z,25.51
2017-06-10T13:53:50.250Z,25.54
2017-06-10T13:55:00.162Z,25.51
2017-06-10T13:56:10.390Z,25.6
2017-06-10T13:57:20.611Z,25.55
2017-06-10T13:58:29.900Z,25.54
2017-06-10T13:59:39.816Z,25.61
2017-06-10T14:00:49.443Z,25.57
2017-06-10T14:01:59.672Z,25.67
2017-06-10T14:03:09.910Z,25.65
2017-06-10T14:04:19.847Z,25.67
2017-06-10T14:05:30.071Z,25.57
2017-06-10T14:06:39.686Z,25.62
2017-06-10T14:07:49.904Z,25.62
2017-06-10T14:08:59.823Z,25.62
2017-06-10T14:10:09.758Z,25.64
2017-06-10T14:11:19.661Z,25.61
2017-06-10T14:12:29.567Z,25.64
2017-06-10T14:13:39.170Z,25.62
2017-06-10T14:14:49.078Z,25.61
2017-06-10T14:15:59.002Z,25.65
2017-06-10T14:17:08.703Z,25.64
2017-06-10T14:18:18.307Z,25.61
2017-06-10T14:19:28.526Z,25.64
2017-06-10T14:20:38.452Z,25.72
2017-06-10T14:21:48.666Z,25.69
2017-06-10T14:22:58.283Z,25.65
2017-06-10T14:24:08.201Z,25.67
2017-06-10T14:25:18.427Z,25.73
2017-06-10T14:26:28.654Z,25.7
2017-06-10T14:27:38.874Z,25.69
2017-06-10T14:28:48.791Z,25.69
2017-06-10T14:29:58.705Z,25.77
2017-06-10T14:31:08.310Z,25.73
2017-06-10T14:32:17.604Z,25.72
2017-06-10T14:33:27.213Z,25.75
2017-06-10T14:34:37.128Z,25.79
2017-06-10T14:35:47.333Z,25.76
2017-06-10T14:36:56.944Z,25.72
2017-06-10T14:38:07.159Z,25.79
2017-06-10T14:39:17.074Z,25.77
2017-06-10T14:40:26.991Z,25.82
2017-06-10T14:41:37.220Z,25.77
2017-06-10T14:42:47.436Z,25.79
2017-06-10T14:43:57.336Z,25.82
2017-06-10T14:45:07.250Z,25.73
2017-06-10T14:46:16.892Z,25.82
2017-06-10T14:47:26.800Z,25.8
2017-06-10T14:48:36.091Z,25.82
2017-06-10T14:49:46.313Z,25.77
2017-06-10T14:50:56.230Z,25.82
2017-06-10T14:52:05.828Z,25.85
2017-06-10T14:53:15.746Z,25.83
2017-06-10T14:54:25.686Z,25.8
2017-06-10T14:55:35.619Z,25.83
2017-06-10T14:56:45.586Z,25.85
2017-06-10T14:57:55.199Z,25.85
2017-06-10T14:59:05.419Z,25.92
2017-06-10T15:00:15.041Z,25.94
2017-06-10T15:01:24.951Z,25.92
2017-06-10T15:02:34.624Z,25.91
2017-06-10T15:03:44.246Z,25.87
2017-06-10T15:04:54.168Z,25.91